x

Long Key, Fl (lonf1) Weather Station

2:00am - Thu 3rd Sep 2015 All times are CDT. -4 hours from GMT.

  • Wind
    6mph, 7mph gusts
  • Sea Temp 88°f
  • Air Temp 85°f
  • Sea Pressure 1016.3mb
  • Long Key, Fl
  • Long Key, Fl

More Historic Weather Station data

Upgrade to MSW Pro to gain access to the past 30 days of data for over 8000 Wavebouys and Weather Stations around the globe.

Join Pro

Comparision Forecast

View Surf forecast
   
Thu 09/03 2:00am 6 7 mph 1016.3mb 88f 85f
1:00am 8 9 mph 1017.1mb 88f 85f
12:00am 7 8 mph 1017.5mb 89f 85f
Wed 09/02 11:00pm 8 9 mph 1017.2mb 89f 85f
10:00pm 8 9 mph 1017.1mb 89f 85f
9:00pm 8 10 mph 1017mb 89f 85f
8:00pm 5 7 mph 1016.3mb 89f 86f
7:00pm 3 5 mph 1016.1mb 89f 86f
6:00pm 6 7 mph 1016.2mb 89f 87f
5:00pm 5 6 mph 1016.4mb 89f 86f
4:00pm  -  2 mph 1017mb 88f 89f
3:00pm 2 3 mph 1017.4mb 87f 88f
2:00pm 2 5 mph 1018.3mb 87f 86f
1:00pm 3 5 mph 1018.8mb 87f 86f
12:00pm 5 7 mph 1019.3mb 87f 86f
11:00am 3 5 mph 1019.5mb 86f 87f
10:00am 6 7 mph 1019.2mb 86f 87f
9:00am 7 8 mph 1019.1mb 86f 87f
8:00am 7 8 mph 1018.9mb 86f 85f
7:00am 9 10 mph 1018.4mb 86f 85f
6:00am 10 11 mph 1017.8mb 86f 85f
5:00am 10 11 mph 1017.5mb 86f 85f
4:00am 11 13 mph 1017.5mb 86f 85f
3:00am 11 13 mph 1017.8mb 87f 85f
2:00am 14 15 mph 1018.1mb 87f 85f
1:00am 13 14 mph 1018.7mb 87f 85f
12:00am 13 14 mph 1018.9mb 87f 85f
Tue 09/01 11:00pm 13 15 mph 1019.1mb 87f 85f
10:00pm 11 13 mph 1018.9mb 87f 86f
9:00pm 8 9 mph 1018.8mb 87f 85f
8:00pm 8 9 mph 1017.8mb 87f 85f
7:00pm 7 9 mph 1017.6mb 88f 86f
6:00pm 6 7 mph 1017.6mb 88f 86f
5:00pm  -  2 mph 1017.2mb 88f 89f
4:00pm 5
mph
1017.6mb 87f 88f
3:00pm 6 7 mph 1018.5mb 87f 87f
2:00pm 8 9 mph 1018.9mb 87f 86f
1:00pm 8 9 mph 1019.2mb 86f 86f
12:00pm 9 10 mph 1019.4mb 86f 86f
11:00am 11 14 mph 1019.8mb 85f 86f
10:00am 9 10 mph 1019.6mb 85f 86f
9:00am 9 10 mph 1019.1mb 85f 86f
8:00am 8 10 mph 1018.5mb 85f 85f
7:00am 11
mph
1017.9mb 85f 84f
6:00am 10 13 mph 1017.5mb 85f 84f
5:00am 9 11 mph 1017.2mb 85f 84f
4:00am 9 10 mph 1017.4mb 85f 84f
3:00am 11 13 mph 1017.6mb 86f 84f
2:00am 11 13 mph 1017.3mb 86f 85f
1:00am 5 6 mph 1018.5mb 86f 85f
12:00am 5 6 mph 1019mb 86f 85f
Mon 08/31 11:00pm 3 5 mph 1019.2mb 86f 85f
10:00pm 6
mph
1019.2mb 86f 85f
9:00pm 2 3 mph 1018.6mb 86f 85f
8:00pm 2
mph
1017.9mb 86f 85f
7:00pm 2 5 mph 1017.4mb 86f 86f
6:00pm 5 6 mph 1017.2mb 86f 87f
5:00pm 7 9 mph 1017.3mb 86f 87f
4:00pm 10 11 mph 1017.6mb 86f 86f
3:00pm 10 11 mph 1018mb 86f 86f
2:00pm 10 13 mph 1018.4mb 85f 86f
1:00pm 11 14 mph 1018.5mb 85f 85f
12:00pm 13 15 mph 1018.5mb 84f 85f
11:00am 14 15 mph 1018.1mb 84f 85f
10:00am 14 16 mph 1017.7mb 83f 84f
9:00am 13 14 mph 1017.3mb 83f 84f
8:00am 14 15 mph 1017mb 83f 84f
7:00am 13 14 mph 1016.4mb 83f 83f
6:00am 11 14 mph 1015.9mb 84f 83f
5:00am 13 14 mph 1015.6mb 84f 83f
4:00am 9 10 mph 1015.7mb 84f 83f
3:00am 11 13 mph 1016.1mb 84f 83f
2:00am 13 15 mph 1016.5mb 85f 84f
1:00am 13 16 mph 1017mb 85f 84f
12:00am 11 14 mph 1017.5mb 85f 83f
Sun 08/30 11:00pm  -  1 mph 1017.4mb 85f 78f
10:00pm 26 30 mph 1016.8mb 85f 81f
9:00pm 20 21 mph 1015.8mb 85f 82f
8:00pm 14 16 mph 1015.4mb 85f 83f
7:00pm 15 17 mph 1015.6mb 85f 82f
6:00pm 24 26 mph 1015.8mb 85f 79f
5:00pm 20 22 mph 1015.9mb 85f 84f
4:00pm 18 20 mph 1015.6mb 86f 81f
3:00pm 21 24 mph 1016.1mb 86f 83f
2:00pm 23 28 mph 1016.3mb 86f 84f
1:00pm 22 26 mph 1016.4mb 86f 83f
12:00pm 15 17 mph 1017.1mb 86f 82f
11:00am 24 30 mph 1016.2mb 86f 83f
10:00am 22 24 mph 1015.7mb 86f 83f
9:00am 20 23 mph 1014.9mb 85f 84f
8:00am 18 21 mph 1014.2mb 85f 83f